WAT2067 BKPR-LQSA
Flight info
| Callsign | WAT2067 |
|---|---|
| Flight time | 0h 35m |
| Altitude | 20000 |
| Route | DOLEV1D DOLEV L608 KEB |
| Aircraft | B738/M-SDE2E3FGHIRWXY/LB1 |
Departure
| Time | 2026-04-21 00:06 |
|---|---|
| Airport | Priština Adem Jashari International Airport (BKPR) |
Arrival
| Time | 2026-04-21 00:41 |
|---|---|
| Airport | Sarajevo International Airport (LQSA) |
| Time | Latitude | Longitude | Altitude | Speed | Heading |
|---|---|---|---|---|---|
| 2026-04-20 23:44 | 42.57472 | 21.03151 | 1786 ft | 0 kts | 265° |
| 2026-04-20 23:56 | 42.57472 | 21.03158 | 1786 ft | 4 kts | 265° |
| 2026-04-20 23:56 | 42.57475 | 21.03194 | 1786 ft | 4 kts | 261° |
| 2026-04-20 23:56 | 42.57480 | 21.03230 | 1786 ft | 4 kts | 256° |
| 2026-04-20 23:56 | 42.57484 | 21.03249 | 1786 ft | 1 kts | 256° |
| 2026-04-20 23:57 | 42.57484 | 21.03251 | 1786 ft | 0 kts | 256° |
| 2026-04-20 23:59 | 42.57477 | 21.03249 | 1786 ft | 3 kts | 193° |
| 2026-04-20 23:59 | 42.57422 | 21.03233 | 1786 ft | 13 kts | 179° |
| 2026-04-20 23:59 | 42.57337 | 21.03272 | 1786 ft | 14 kts | 115° |
| 2026-04-21 00:00 | 42.57267 | 21.03346 | 1786 ft | 13 kts | 171° |
| 2026-04-21 00:00 | 42.57177 | 21.03357 | 1785 ft | 13 kts | 175° |
| 2026-04-21 00:00 | 42.57090 | 21.03367 | 1783 ft | 12 kts | 175° |
| 2026-04-21 00:00 | 42.57005 | 21.03375 | 1785 ft | 12 kts | 176° |
| 2026-04-21 00:01 | 42.56921 | 21.03382 | 1784 ft | 12 kts | 176° |
| 2026-04-21 00:01 | 42.56831 | 21.03390 | 1781 ft | 14 kts | 176° |
| 2026-04-21 00:01 | 42.56736 | 21.03401 | 1780 ft | 13 kts | 175° |
| 2026-04-21 00:01 | 42.56645 | 21.03410 | 1782 ft | 13 kts | 176° |
| 2026-04-21 00:02 | 42.56557 | 21.03419 | 1782 ft | 13 kts | 174° |
| 2026-04-21 00:02 | 42.56471 | 21.03429 | 1782 ft | 12 kts | 175° |
| 2026-04-21 00:02 | 42.56387 | 21.03438 | 1783 ft | 12 kts | 175° |
| 2026-04-21 00:02 | 42.56306 | 21.03447 | 1787 ft | 12 kts | 175° |
| 2026-04-21 00:03 | 42.56226 | 21.03454 | 1789 ft | 11 kts | 176° |
| 2026-04-21 00:03 | 42.56149 | 21.03461 | 1791 ft | 11 kts | 176° |
| 2026-04-21 00:03 | 42.56070 | 21.03469 | 1793 ft | 12 kts | 176° |
| 2026-04-21 00:03 | 42.55992 | 21.03477 | 1793 ft | 11 kts | 176° |
| 2026-04-21 00:04 | 42.55915 | 21.03484 | 1793 ft | 11 kts | 176° |
| 2026-04-21 00:04 | 42.55836 | 21.03497 | 1796 ft | 12 kts | 163° |
| 2026-04-21 00:04 | 42.55806 | 21.03590 | 1798 ft | 11 kts | 91° |
| 2026-04-21 00:04 | 42.55816 | 21.03696 | 1797 ft | 11 kts | 73° |
| 2026-04-21 00:05 | 42.55881 | 21.03727 | 1797 ft | 11 kts | 356° |
| 2026-04-21 00:05 | 42.56018 | 21.03716 | 1796 ft | 50 kts | 356° |
| 2026-04-21 00:05 | 42.56672 | 21.03648 | 1778 ft | 134 kts | 355° |
| 2026-04-21 00:05 | 42.57775 | 21.03531 | 2169 ft | 172 kts | 356° |
| 2026-04-21 00:06 | 42.59034 | 21.03394 | 3122 ft | 190 kts | 355° |
| 2026-04-21 00:06 | 42.60396 | 21.03258 | 3872 ft | 209 kts | 354° |
| 2026-04-21 00:06 | 42.61954 | 21.03088 | 4135 ft | 237 kts | 353° |
| 2026-04-21 00:06 | 42.63626 | 21.02799 | 4777 ft | 246 kts | 337° |
| 2026-04-21 00:07 | 42.64950 | 21.01474 | 5770 ft | 236 kts | 304° |
| 2026-04-21 00:07 | 42.65840 | 20.99618 | 6768 ft | 234 kts | 301° |
| 2026-04-21 00:07 | 42.66723 | 20.97744 | 7666 ft | 237 kts | 302° |
| 2026-04-21 00:07 | 42.67621 | 20.95860 | 8552 ft | 238 kts | 302° |
| 2026-04-21 00:08 | 42.68525 | 20.93967 | 9462 ft | 240 kts | 302° |
| 2026-04-21 00:08 | 42.69437 | 20.92066 | 10380 ft | 240 kts | 302° |
| 2026-04-21 00:08 | 42.70317 | 20.90110 | 11135 ft | 246 kts | 295° |
| 2026-04-21 00:08 | 42.70945 | 20.87842 | 11511 ft | 269 kts | 288° |
| 2026-04-21 00:09 | 42.71511 | 20.85282 | 11724 ft | 296 kts | 287° |
| 2026-04-21 00:09 | 42.72103 | 20.82480 | 11925 ft | 321 kts | 286° |
| 2026-04-21 00:09 | 42.72738 | 20.79493 | 12105 ft | 344 kts | 286° |
| 2026-04-21 00:09 | 42.73432 | 20.76271 | 12299 ft | 364 kts | 287° |
| 2026-04-21 00:10 | 42.74166 | 20.72912 | 12784 ft | 374 kts | 287° |
| 2026-04-21 00:10 | 42.74918 | 20.69505 | 13568 ft | 376 kts | 287° |
| 2026-04-21 00:10 | 42.75673 | 20.66097 | 14299 ft | 378 kts | 287° |
| 2026-04-21 00:10 | 42.76436 | 20.62660 | 14967 ft | 380 kts | 287° |
| 2026-04-21 00:11 | 42.77202 | 20.59209 | 15641 ft | 383 kts | 286° |
| 2026-04-21 00:11 | 42.77975 | 20.55725 | 16281 ft | 385 kts | 286° |
| 2026-04-21 00:11 | 42.78750 | 20.52224 | 16913 ft | 388 kts | 286° |
| 2026-04-21 00:11 | 42.79532 | 20.48686 | 17525 ft | 391 kts | 286° |
| 2026-04-21 00:12 | 42.80318 | 20.45128 | 18127 ft | 394 kts | 286° |
| 2026-04-21 00:12 | 42.81111 | 20.41539 | 18648 ft | 397 kts | 286° |
| 2026-04-21 00:12 | 42.81903 | 20.37932 | 19182 ft | 398 kts | 286° |
| 2026-04-21 00:12 | 42.82698 | 20.34304 | 19731 ft | 400 kts | 286° |
| 2026-04-21 00:13 | 42.83660 | 20.30839 | 19940 ft | 401 kts | 297° |
| 2026-04-21 00:13 | 42.85319 | 20.27761 | 20003 ft | 405 kts | 308° |
| 2026-04-21 00:13 | 42.87158 | 20.24826 | 20002 ft | 407 kts | 308° |
| 2026-04-21 00:13 | 42.88981 | 20.21888 | 19997 ft | 405 kts | 307° |
| 2026-04-21 00:14 | 42.90182 | 20.19940 | 19987 ft | 404 kts | 307° |
| 2026-04-21 00:14 | 42.92568 | 20.16037 | 20002 ft | 404 kts | 307° |
| 2026-04-21 00:14 | 42.93782 | 20.14043 | 20010 ft | 404 kts | 307° |
| 2026-04-21 00:14 | 42.96161 | 20.10123 | 20014 ft | 406 kts | 307° |
| 2026-04-21 00:15 | 42.97382 | 20.08109 | 20008 ft | 408 kts | 307° |
| 2026-04-21 00:15 | 42.99191 | 20.05114 | 20007 ft | 409 kts | 307° |
| 2026-04-21 00:15 | 43.00981 | 20.02151 | 20015 ft | 410 kts | 307° |
| 2026-04-21 00:15 | 43.02795 | 19.99145 | 20003 ft | 410 kts | 307° |
| 2026-04-21 00:16 | 43.04609 | 19.96138 | 20010 ft | 410 kts | 307° |
| 2026-04-21 00:16 | 43.06422 | 19.93130 | 20001 ft | 410 kts | 307° |
| 2026-04-21 00:16 | 43.08232 | 19.90118 | 20013 ft | 410 kts | 306° |
| 2026-04-21 00:16 | 43.10040 | 19.87107 | 20012 ft | 409 kts | 307° |
| 2026-04-21 00:17 | 43.11852 | 19.84097 | 20020 ft | 409 kts | 307° |
| 2026-04-21 00:17 | 43.13659 | 19.81091 | 20007 ft | 409 kts | 307° |
| 2026-04-21 00:17 | 43.15464 | 19.78082 | 20009 ft | 409 kts | 307° |
| 2026-04-21 00:17 | 43.17271 | 19.75061 | 19998 ft | 409 kts | 307° |
| 2026-04-21 00:18 | 43.19074 | 19.72051 | 20002 ft | 408 kts | 306° |
| 2026-04-21 00:18 | 43.20872 | 19.69042 | 20008 ft | 409 kts | 307° |
| 2026-04-21 00:18 | 43.22674 | 19.66024 | 19991 ft | 409 kts | 307° |
| 2026-04-21 00:18 | 43.24488 | 19.62989 | 19990 ft | 412 kts | 306° |
| 2026-04-21 00:19 | 43.26298 | 19.59945 | 19999 ft | 411 kts | 306° |
| 2026-04-21 00:19 | 43.28104 | 19.56914 | 19998 ft | 410 kts | 306° |
| 2026-04-21 00:19 | 43.29910 | 19.53883 | 20009 ft | 410 kts | 306° |
| 2026-04-21 00:19 | 43.31713 | 19.50853 | 20014 ft | 410 kts | 306° |
| 2026-04-21 00:20 | 43.33514 | 19.47821 | 19998 ft | 410 kts | 306° |
| 2026-04-21 00:20 | 43.35318 | 19.44780 | 19997 ft | 410 kts | 306° |
| 2026-04-21 00:20 | 43.37118 | 19.41741 | 19994 ft | 411 kts | 306° |
| 2026-04-21 00:20 | 43.38922 | 19.38688 | 19998 ft | 411 kts | 306° |
| 2026-04-21 00:21 | 43.40723 | 19.35635 | 19993 ft | 411 kts | 306° |
| 2026-04-21 00:21 | 43.42498 | 19.32622 | 19998 ft | 411 kts | 306° |
| 2026-04-21 00:21 | 43.44300 | 19.29562 | 19996 ft | 412 kts | 306° |
| 2026-04-21 00:21 | 43.46102 | 19.26501 | 19988 ft | 411 kts | 306° |
| 2026-04-21 00:22 | 43.47900 | 19.23442 | 19991 ft | 410 kts | 306° |
| 2026-04-21 00:22 | 43.49699 | 19.20374 | 19990 ft | 410 kts | 306° |
| 2026-04-21 00:22 | 43.51484 | 19.17334 | 19995 ft | 411 kts | 306° |
| 2026-04-21 00:22 | 43.53300 | 19.14234 | 19986 ft | 412 kts | 306° |
| 2026-04-21 00:23 | 43.55080 | 19.11193 | 19985 ft | 413 kts | 306° |
| 2026-04-21 00:23 | 43.56883 | 19.08112 | 19993 ft | 414 kts | 306° |
| 2026-04-21 00:23 | 43.58703 | 19.04999 | 20009 ft | 415 kts | 306° |
| 2026-04-21 00:23 | 43.60500 | 19.01925 | 19994 ft | 414 kts | 306° |
| 2026-04-21 00:24 | 43.62308 | 18.98829 | 19992 ft | 412 kts | 306° |
| 2026-04-21 00:24 | 43.64105 | 18.95745 | 19998 ft | 411 kts | 306° |
| 2026-04-21 00:24 | 43.65889 | 18.92682 | 20004 ft | 411 kts | 306° |
| 2026-04-21 00:24 | 43.67685 | 18.89593 | 19742 ft | 410 kts | 306° |
| 2026-04-21 00:25 | 43.69445 | 18.86577 | 19148 ft | 402 kts | 306° |
| 2026-04-21 00:25 | 43.71198 | 18.83561 | 18527 ft | 397 kts | 306° |
| 2026-04-21 00:25 | 43.72909 | 18.80604 | 17812 ft | 393 kts | 306° |
| 2026-04-21 00:25 | 43.74587 | 18.77702 | 17111 ft | 389 kts | 306° |
| 2026-04-21 00:26 | 43.76286 | 18.74764 | 16438 ft | 384 kts | 306° |
| 2026-04-21 00:26 | 43.77941 | 18.71902 | 15809 ft | 379 kts | 306° |
| 2026-04-21 00:26 | 43.79577 | 18.69064 | 15173 ft | 376 kts | 306° |
| 2026-04-21 00:26 | 43.81202 | 18.66244 | 14545 ft | 372 kts | 306° |
| 2026-04-21 00:27 | 43.82809 | 18.63453 | 13922 ft | 369 kts | 307° |
| 2026-04-21 00:27 | 43.84383 | 18.60718 | 13269 ft | 366 kts | 307° |
| 2026-04-21 00:27 | 43.85965 | 18.57965 | 12629 ft | 363 kts | 306° |
| 2026-04-21 00:27 | 43.87533 | 18.55236 | 12023 ft | 360 kts | 307° |
| 2026-04-21 00:28 | 43.89094 | 18.52527 | 11430 ft | 359 kts | 307° |
| 2026-04-21 00:28 | 43.90614 | 18.49878 | 11313 ft | 344 kts | 307° |
| 2026-04-21 00:28 | 43.92075 | 18.47325 | 11153 ft | 331 kts | 307° |
| 2026-04-21 00:28 | 43.93484 | 18.44869 | 11011 ft | 320 kts | 307° |
| 2026-04-21 00:29 | 43.94905 | 18.42561 | 10889 ft | 309 kts | 309° |
| 2026-04-21 00:29 | 43.96314 | 18.40372 | 10766 ft | 299 kts | 310° |
| 2026-04-21 00:29 | 43.97681 | 18.38263 | 10651 ft | 290 kts | 310° |
| 2026-04-21 00:29 | 43.99012 | 18.36204 | 10525 ft | 281 kts | 309° |
| 2026-04-21 00:30 | 44.00289 | 18.34206 | 10407 ft | 273 kts | 309° |
| 2026-04-21 00:30 | 44.01526 | 18.32265 | 10312 ft | 264 kts | 309° |
| 2026-04-21 00:30 | 44.02726 | 18.30386 | 10206 ft | 257 kts | 309° |
| 2026-04-21 00:30 | 44.03894 | 18.28548 | 10104 ft | 251 kts | 309° |
| 2026-04-21 00:31 | 44.05038 | 18.26753 | 10001 ft | 245 kts | 309° |
| 2026-04-21 00:31 | 44.06150 | 18.25006 | 9896 ft | 238 kts | 309° |
| 2026-04-21 00:31 | 44.07243 | 18.23304 | 9791 ft | 233 kts | 309° |
| 2026-04-21 00:31 | 44.08326 | 18.21648 | 9642 ft | 235 kts | 310° |
| 2026-04-21 00:32 | 44.09413 | 18.19988 | 9428 ft | 226 kts | 310° |
| 2026-04-21 00:32 | 44.10463 | 18.18380 | 9181 ft | 223 kts | 310° |
| 2026-04-21 00:32 | 44.11377 | 18.16642 | 8925 ft | 223 kts | 287° |
| 2026-04-21 00:32 | 44.11329 | 18.14546 | 8722 ft | 222 kts | 245° |
| 2026-04-21 00:33 | 44.10325 | 18.12953 | 8540 ft | 224 kts | 221° |
| 2026-04-21 00:33 | 44.09038 | 18.11691 | 8302 ft | 229 kts | 213° |
| 2026-04-21 00:33 | 44.07625 | 18.10607 | 8060 ft | 233 kts | 208° |
| 2026-04-21 00:33 | 44.06163 | 18.09651 | 7796 ft | 231 kts | 207° |
| 2026-04-21 00:34 | 44.04723 | 18.08690 | 7579 ft | 227 kts | 206° |
| 2026-04-21 00:34 | 44.03278 | 18.07864 | 7371 ft | 220 kts | 202° |
| 2026-04-21 00:34 | 44.01862 | 18.07205 | 7147 ft | 209 kts | 199° |
| 2026-04-21 00:34 | 44.00491 | 18.06683 | 6924 ft | 198 kts | 196° |
| 2026-04-21 00:35 | 43.99180 | 18.06283 | 6706 ft | 188 kts | 193° |
| 2026-04-21 00:35 | 43.97919 | 18.05981 | 6528 ft | 182 kts | 191° |
| 2026-04-21 00:35 | 43.96655 | 18.05743 | 6347 ft | 184 kts | 188° |
| 2026-04-21 00:35 | 43.95380 | 18.05575 | 6160 ft | 185 kts | 186° |
| 2026-04-21 00:36 | 43.94109 | 18.05486 | 5963 ft | 185 kts | 184° |
| 2026-04-21 00:36 | 43.92865 | 18.05863 | 5734 ft | 190 kts | 146° |
| 2026-04-21 00:36 | 43.92101 | 18.07339 | 5607 ft | 190 kts | 117° |
| 2026-04-21 00:36 | 43.91500 | 18.08990 | 5298 ft | 191 kts | 118° |
| 2026-04-21 00:37 | 43.90888 | 18.10596 | 5066 ft | 186 kts | 119° |
| 2026-04-21 00:37 | 43.90289 | 18.12176 | 4794 ft | 183 kts | 118° |
| 2026-04-21 00:37 | 43.89711 | 18.13719 | 4583 ft | 179 kts | 117° |
| 2026-04-21 00:37 | 43.89145 | 18.15236 | 4485 ft | 176 kts | 117° |
| 2026-04-21 00:38 | 43.88570 | 18.16776 | 4257 ft | 179 kts | 117° |
| 2026-04-21 00:38 | 43.87994 | 18.18316 | 3960 ft | 180 kts | 116° |
| 2026-04-21 00:38 | 43.87420 | 18.19850 | 3718 ft | 178 kts | 117° |
| 2026-04-21 00:38 | 43.86853 | 18.21366 | 3485 ft | 177 kts | 117° |
| 2026-04-21 00:39 | 43.86287 | 18.22878 | 3249 ft | 176 kts | 117° |
| 2026-04-21 00:39 | 43.85727 | 18.24380 | 3005 ft | 175 kts | 117° |
| 2026-04-21 00:39 | 43.85173 | 18.25865 | 2773 ft | 174 kts | 117° |
| 2026-04-21 00:39 | 43.84618 | 18.27349 | 2499 ft | 173 kts | 117° |
| 2026-04-21 00:40 | 43.84066 | 18.28831 | 2233 ft | 172 kts | 117° |
| 2026-04-21 00:40 | 43.83516 | 18.30304 | 1975 ft | 172 kts | 117° |
| 2026-04-21 00:40 | 43.82974 | 18.31767 | 1741 ft | 170 kts | 118° |
| 2026-04-21 00:40 | 43.82459 | 18.33174 | 1686 ft | 152 kts | 114° |
| 2026-04-21 00:41 | 43.82162 | 18.33974 | 1704 ft | 37 kts | 119° |
| 2026-04-21 00:41 | 43.82071 | 18.34204 | 1707 ft | 26 kts | 118° |
| 2026-04-21 00:41 | 43.81982 | 18.34433 | 1712 ft | 23 kts | 118° |
| 2026-04-21 00:41 | 43.81969 | 18.34580 | 1714 ft | 14 kts | 56° |
| 2026-04-21 00:42 | 43.82055 | 18.34616 | 1713 ft | 14 kts | 346° |
| 2026-04-21 00:42 | 43.82115 | 18.34515 | 1710 ft | 14 kts | 302° |
| 2026-04-21 00:42 | 43.82166 | 18.34396 | 1707 ft | 15 kts | 300° |
| 2026-04-21 00:42 | 43.82214 | 18.34273 | 1706 ft | 14 kts | 298° |
| 2026-04-21 00:43 | 43.82259 | 18.34154 | 1703 ft | 14 kts | 297° |
| 2026-04-21 00:43 | 43.82300 | 18.34041 | 1697 ft | 13 kts | 296° |
| 2026-04-21 00:43 | 43.82341 | 18.33928 | 1691 ft | 14 kts | 297° |
| 2026-04-21 00:43 | 43.82385 | 18.33811 | 1694 ft | 13 kts | 297° |
| 2026-04-21 00:44 | 43.82427 | 18.33699 | 1688 ft | 13 kts | 297° |
| 2026-04-21 00:44 | 43.82476 | 18.33600 | 1684 ft | 13 kts | 330° |
| 2026-04-21 00:44 | 43.82529 | 18.33618 | 1687 ft | 0 kts | 22° |